NY/NJ Local METAR Reports

No Warnings, Watches, or Advisories
KNYC - NYC/Central Park, NY, USA
Distance from station: NE 4mi, 7km
Updated: 12/01/2020 2:51pm
Overcast
Overcast
 Wind from WSW
Wind: WSW 12 mph , 19 km/h, Gust: 26 mph , 43 km/h
Temperature: 45°F , 7°C
Wind Chill: 39°F , 4°C
Dew Point: 30°F , -1°C
Humidity: 57%
Barometer: 29.61 inHg , 1002.7 hPa
Clouds: Overcast
Visibility: 10 miles , 16 km
Cloud details: Mostly cloudy 3700 ft
Overcast 4500 ft
2020/12/01 19:51 KNYC 011951Z AUTO 25010G23KT 200V270 10SM BKN037 OVC045 07/M01 A2961 RMK AO2 SLP018 T00721006 $
KEWR - Newark, NJ, USA
Distance from station: WSW 8mi, 13km
Updated: 12/01/2020 2:51pm
Mostly cloudy
Mostly cloudy
 Wind from SW
Wind: SW 18 mph , 30 km/h, Gust: 28 mph , 44 km/h
Temperature: 45°F , 7°C
Wind Chill: 37°F , 3°C
Dew Point: 32°F , 0°C
Humidity: 61%
Barometer: 29.60 inHg , 1002.4 hPa
Clouds: Mostly cloudy
Visibility: 10 miles , 16 km
Cloud details: Partly cloudy 3100 ft
Mostly cloudy 3700 ft
2020/12/01 19:51 KEWR 011951Z 23016G24KT 10SM SCT031 BKN037 07/00 A2960 RMK AO2 PK WND 23030/1911 SLP024 T00670000
 
KLGA - NYC/La Guardia, NY, USA
Distance from station: ENE 8mi, 13km
Updated: 12/01/2020 2:51pm
Overcast
Overcast
 Wind from WSW
Wind: WSW 17 mph , 28 km/h, Gust: 30 mph , 48 km/h
Temperature: 48°F , 9°C
Wind Chill: 42°F , 6°C
Dew Point: 32°F , 0°C
Humidity: 54%
Barometer: 29.59 inHg , 1002 hPa
Clouds: Overcast
Visibility: 10 miles , 16 km
Cloud details: Mostly cloudy 3500 ft
Overcast 4500 ft
2020/12/01 19:51 KLGA 011951Z 24015G26KT 10SM BKN035 OVC045 09/00 A2959 RMK AO2 PK WND 26029/1910 SLP019 T00890000
KTEB - Teterboro, NJ, USA
Distance from station: N 9mi, 14km
Updated: 12/01/2020 2:51pm
Overcast
Overcast
 Wind from WSW
Wind: WSW 18 mph , 30 km/h, Gust: 28 mph , 44 km/h
Temperature: 45°F , 7°C
Wind Chill: 37°F , 3°C
Dew Point: 34°F , 1°C
Humidity: 66%
Barometer: 29.58 inHg , 1001.7 hPa
Clouds: Overcast
Visibility: 10 miles , 16 km
Cloud details: Mostly cloudy 3200 ft
Overcast 4300 ft
2020/12/01 19:51 KTEB 011951Z 24016G24KT 10SM BKN032 OVC043 07/01 A2958 RMK AO2 PK WND 23026/1941 SLP016 T00720006
 
KJFK - NYC/Jfk Arpt, NY, USA
Distance from station: ESE 16mi, 25km
Updated: 12/01/2020 2:51pm
Mostly cloudy
Mostly cloudy
 Wind from WSW
Wind: WSW 23 mph , 37 km/h, Gust: 33 mph , 54 km/h
Temperature: 46°F , 8°C
Wind Chill: 38°F , 3°C
Dew Point: 34°F , 1°C
Humidity: 62%
Barometer: 29.61 inHg , 1002.7 hPa
Clouds: Mostly cloudy
Visibility: 10 miles , 16 km
Cloud details: Mostly cloudy 3500 ft
Mostly cloudy 5000 ft
2020/12/01 19:51 KJFK 011951Z 24020G29KT 10SM BKN035 BKN050 08/01 A2961 RMK AO2 PK WND 24029/1922 SLP026 T00780011 $
KCDW - Caldwell, NJ, USA
Distance from station: NW 16mi, 26km
Updated: 12/01/2020 2:53pm
Overcast
Overcast
 Wind from varies
Wind: varies 7 mph , 11 km/h, Gust: 21 mph , 33 km/h
Temperature: 45°F , 7°C
Wind Chill: 41°F , 5°C
Dew Point: 32°F , 0°C
Humidity: 61%
Barometer: 29.59 inHg , 1002 hPa
Clouds: Overcast
Visibility: 10 miles , 16 km
Cloud details: Partly cloudy 2800 ft
Overcast 3600 ft
2020/12/01 19:53 KCDW 011953Z VRB06G18KT 10SM SCT028 OVC036 07/00 A2959 RMK AO2 SLP024 T00720000
 
KMMU - Morristown Muni, NJ, USA
Distance from station: W 20mi, 33km
Updated: 12/01/2020 2:50pm
Overcast
Overcast
 Wind from WSW
Wind: WSW 15 mph , 24 km/h, Gust: 17 mph , 28 km/h
Temperature: 45°F , 7°C
Wind Chill: 38°F , 3°C
Dew Point: 37°F , 3°C
Humidity: 76%
Barometer: 29.59 inHg , 1002 hPa
Clouds: Overcast
Visibility: 10 miles , 16 km
Cloud details: Partly cloudy 3000 ft
Mostly cloudy 3400 ft
Overcast 4000 ft
2020/12/01 19:50 KMMU 011950Z 25013G15KT 10SM SCT030 BKN034 OVC040 07/03 A2959
KHPN - White Plains, NY, USA
Distance from station: NE 28mi, 46km
Updated: 12/01/2020 2:56pm
Mostly cloudy
Mostly cloudy
 Wind from SW
Wind: SW 10 mph , 17 km/h, Gust: 20 mph , 31 km/h
Temperature: 45°F , 7°C
Wind Chill: 40°F , 4°C
Dew Point: 30°F , -1°C
Humidity: 57%
Barometer: 29.55 inHg , 1000.7 hPa
Clouds: Mostly cloudy
Visibility: 10 miles , 16 km
Cloud details: Mostly cloudy 4000 ft
Mostly cloudy 5500 ft
2020/12/01 19:56 KHPN 011956Z 22009G17KT 190V260 10SM BKN040 BKN055 07/M01 A2955 RMK AO2 SLP008 T00721006
 
KFRG - Farmingdale, NY, USA
Distance from station: E 32mi, 52km
Updated: 12/01/2020 2:53pm
Overcast
Overcast
 Wind from WSW
Wind: WSW 20 mph , 31 km/h, Gust: 26 mph , 43 km/h
Temperature: 48°F , 9°C
Wind Chill: 41°F , 5°C
Dew Point: 34°F , 1°C
Humidity: 58%
Barometer: 29.59 inHg , 1002 hPa
Clouds: Overcast
Visibility: 10 miles , 16 km
Cloud details: Overcast 5500 ft
2020/12/01 19:53 KFRG 011953Z 25017G23KT 10SM OVC055 09/01 A2959 RMK AO2 PK WND 25027/1857 SLP018 T00940011
KSMQ - Somerville, NJ, USA
Distance from station: WSW 34mi, 55km
Updated: 12/01/2020 2:53pm
Overcast
Overcast
 Wind from SW
Wind: SW 10 mph , 17 km/h, Gust: 18 mph , 30 km/h
Temperature: 45°F , 7°C
Wind Chill: 40°F , 4°C
Dew Point: 32°F , 0°C
Humidity: 61%
Barometer: 29.59 inHg , 1002 hPa
Clouds: Overcast
Visibility: 10 miles , 16 km
Cloud details: Few Clouds 3300 ft
Partly cloudy 4400 ft
Overcast 5500 ft
2020/12/01 19:53 KSMQ 011953Z AUTO 23009G16KT 200V260 10SM FEW033 SCT044 OVC055 07/00 A2959 RMK AO2 SLP022 T00720000
 
KBLM - Belmar/Farmdale, NJ, USA
Distance from station: S 40mi, 64km
Updated: 12/01/2020 2:56pm
Overcast
Overcast
 Wind from WSW
Wind: WSW 8 mph , 13 km/h, Gust: 21 mph , 33 km/h
Temperature: 45°F , 7°C
Wind Chill: 41°F , 5°C
Dew Point: 32°F , 0°C
Humidity: 61%
Barometer: 29.64 inHg , 1003.7 hPa
Clouds: Overcast
Visibility: 10 miles , 16 km
Cloud details: Partly cloudy 2900 ft
Overcast 4200 ft
2020/12/01 19:56 KBLM 011956Z AUTO 24007G18KT 10SM SCT029 OVC042 07/00 A2964 RMK AO2 SLP038 T00720000
K12N - Andover, NJ, USA
Distance from station: WNW 41mi, 67km
Updated: 12/01/2020 2:54pm

 Wind from SW
Wind: SW 13 mph , 20 km/h, Gust: 23 mph , 37 km/h
Temperature: 41°F , 5°C
Wind Chill: 34°F , 1°C
Dew Point: 32°F , 0°C
Humidity: 70%
Barometer: 29.57 inHg , 1001.4 hPa
2020/12/01 19:54 K12N 011954Z AUTO 22011G20KT 05/00 A2957 RMK AO1 SLP016 T00500000
 
KFWN - Sussex, NJ, USA
Distance from station: NW 45mi, 72km
Updated: 12/01/2020 3:15pm
Overcast
Overcast
 Wind from SW
Wind: SW 12 mph , 19 km/h, Gust: 28 mph , 44 km/h
Temperature: 41°F , 5°C
Wind Chill: 34°F , 1°C
Dew Point: 34°F , 1°C
Humidity: 76%
Barometer: 29.56 inHg , 1001 hPa
Clouds: Overcast
Visibility: 10 miles , 16 km
Cloud details: Few Clouds 2200 ft
Partly cloudy 2800 ft
Overcast 4600 ft
2020/12/01 20:15 KFWN 012015Z AUTO 22010G24KT 10SM FEW022 SCT028 OVC046 05/01 A2956 RMK AO2 RAE1956 P0000 T00500006
KISP - Islip, NY, USA
Distance from station: E 49mi, 79km
Updated: 12/01/2020 2:56pm
Mostly cloudy
Mostly cloudy
 Wind from SW
Wind: SW 21 mph , 33 km/h, Gust: 29 mph , 46 km/h
Temperature: 48°F , 9°C
Wind Chill: 41°F , 5°C
Dew Point: 36°F , 2°C
Humidity: 62%
Barometer: 29.58 inHg , 1001.7 hPa
Clouds: Mostly cloudy
Visibility: 10 miles , 16 km
Cloud details: Mostly cloudy 3500 ft
Mostly cloudy 7000 ft
2020/12/01 19:56 KISP 011956Z 23018G25KT 10SM BKN035 BKN070 09/02 A2958 RMK AO2 PK WND 22028/1910 SLP015 T00940017